
Distance (Route):
Temperature : -34.0°C
Humidity : 12.7%
Pressure : 325.0hPa| Receiver | Frames | First received | Last received |
|---|---|---|---|
| 9A1FER-10 | 136 | 2026-08-30 11:57:11 | 2026-08-30 12:57:44 |
| OM5KV | 67 | 2026-08-30 11:44:27 | 2026-08-30 12:27:51 |
| LZ4TU-5 | 55 | 2026-08-30 11:48:46 | 2026-08-30 12:59:39 |
| GYPAP8-17 | 14 | 2026-08-30 11:55:45 | 2026-08-30 13:02:10 |
| 9A1FER-3 | 12 | 2026-08-30 12:26:11 | 2026-08-30 12:44:53 |
| Receiver | Date | Latitude | Longitude | Direction | Speed | Altitude | Climb | Temperature | Humidity | Pressure | Voltage | Killtimer | Uptime | BKT | XDATA |
|---|---|---|---|---|---|---|---|---|---|---|---|---|---|---|---|
| GYPAP8-17 | 2026-08-30 13:02:10 | 46.26921 | 20.73224 | 105° | 73km/h | 9054m | -17.7m/s | -34.0°C | 12.7% | 325.0hPa | 2.7V | 08:23:00 | 00:00:00 | 00:00:00 | |
| GYPAP8-17 | 2026-08-30 12:59:58 | 46.27292 | 20.68698 | 96° | 95km/h | 12262m | -27.6m/s | -54.5°C | 14.3% | 201.5hPa | 2.7V | 00:00:00 | 00:00:00 | 00:00:00 | |
| LZ4TU-5 | 2026-08-30 12:59:39 | 46.27338 | 20.68065 | 97° | 84km/h | 12775m | -29.5m/s | -56.4°C | 10.7% | 186.0hPa | 2.7V | 00:00:00 | 00:00:00 | 00:00:00 | |
| LZ4TU-5 | 2026-08-30 12:59:35 | 46.27345 | 20.67940 | 94° | 91km/h | 12891m | -28.0m/s | -55.7°C | 9.2% | 182.6hPa | 2.7V | 00:00:00 | 00:00:00 | 00:00:00 | |
| LZ4TU-5 | 2026-08-30 12:57:57 | 46.27648 | 20.66037 | 113° | 29km/h | 15575m | -25.8m/s | -57.8°C | 1.9% | 119.3hPa | 2.7V | 00:00:00 | 00:00:00 | 00:00:00 | |
| LZ4TU-5 | 2026-08-30 12:57:53 | 46.27654 | 20.65998 | 93° | 27km/h | 15677m | -27.4m/s | -58.0°C | 0% | 117.5hPa | 2.7V | 00:00:00 | 00:00:00 | 00:00:00 | |
| 9A1FER-10 | 2026-08-30 12:57:44 | 46.27643 | 20.65856 | 87° | 40km/h | 15966m | -29.5m/s | -58.7°C | 5.7% | 112.1hPa | 2.7V | 00:00:00 | 02:08:18 | 00:00:00 | |
| 9A1FER-10 | 2026-08-30 12:57:29 | 46.27660 | 20.65616 | 98° | 29km/h | 16419m | -27.2m/s | -56.7°C | 4.7% | 104.5hPa | 2.7V | 00:00:00 | 02:08:03 | 00:00:00 | |
| 9A1FER-10 | 2026-08-30 12:56:44 | 46.27616 | 20.65249 | 102° | 16km/h | 17851m | -32.0m/s | -57.2°C | 5.2% | 83.3hPa | 2.7V | 08:28:00 | 02:07:18 | 00:00:00 | |
| 9A1FER-10 | 2026-08-30 12:56:29 | 46.27631 | 20.65173 | 58° | 9km/h | 18379m | -39.5m/s | -55.4°C | 4.4% | 76.9hPa | 2.6V | 00:00:00 | 02:07:03 | 00:00:00 | |
| 9A1FER-10 | 2026-08-30 12:56:14 | 46.27603 | 20.65158 | 16° | 18km/h | 18911m | -35.9m/s | -55.2°C | 4.4% | 70.6hPa | 2.6V | 00:00:00 | 02:06:48 | 00:00:00 | |
| 9A1FER-10 | 2026-08-30 12:55:59 | 46.27545 | 20.65112 | 46° | 11km/h | 19496m | -41.1m/s | -55.1°C | 4.3% | 64.5hPa | 2.6V | 00:00:00 | 02:06:33 | 00:00:00 | |
| 9A1FER-10 | 2026-08-30 12:55:44 | 46.27512 | 20.65078 | 11° | 73km/h | 20102m | -38.3m/s | -55.6°C | 4.6% | 58.6hPa | 2.6V | 00:00:00 | 02:06:18 | 00:00:00 | |
| 9A1FER-10 | 2026-08-30 12:53:42 | -12.04845 | -77.04842 | 262° | 203km/h | 996m | -1.0m/s | -49.3°C | 3.6% | 24.5hPa | 2.6V | 00:00:00 | 02:04:18 | 00:00:00 | |
| 9A1FER-10 | 2026-08-30 12:53:40 | -12.04825 | -77.04740 | 256° | 199km/h | 1000m | 0.6m/s | -49.6°C | 3.6% | 24.1hPa | 2.6V | 00:00:00 | 02:04:16 | 00:00:00 | |
| 9A1FER-10 | 2026-08-30 12:53:25 | -12.04372 | -77.04141 | 209° | 120km/h | 991m | -0.1m/s | -47.6°C | 3.3% | 21.3hPa | 2.6V | 00:00:00 | 02:04:01 | 00:00:00 | |
| LZ4TU-5 | 2026-08-30 12:51:00 | -12.03056 | -77.04741 | 104° | 199km/h | 992m | -0.3m/s | -38.8°C | 0.4% | 7.3hPa | 2.6V | 00:00:00 | 00:00:00 | 00:00:00 | |
| LZ4TU-5 | 2026-08-30 12:50:55 | -12.03032 | -77.04945 | 92° | 199km/h | 992m | 0.0m/s | -39.1°C | 0.4% | 7.3hPa | 2.6V | 00:00:00 | 00:00:00 | 00:00:00 | |
| LZ4TU-5 | 2026-08-30 12:48:51 | -12.03248 | -77.05549 | 51° | 199km/h | 990m | 0.1m/s | -39.2°C | 0.5% | 8.4hPa | 2.6V | 00:00:00 | 00:00:00 | 00:00:00 | |
| LZ4TU-5 | 2026-08-30 12:46:30 | -12.04549 | -77.05622 | 318° | 199km/h | 996m | -0.0m/s | -38.0°C | 0.5% | 9.7hPa | 2.6V | 00:00:00 | 00:00:00 | 00:00:00 | |
| LZ4TU-5 | 2026-08-30 12:46:25 | 46.24525 | 20.61527 | 0° | 0km/h | 31286m | 0.0m/s | -37.9°C | 0.4% | 9.8hPa | 2.6V | 00:00:00 | 00:00:00 | 00:00:00 | |
| 9A1FER-3 | 2026-08-30 12:44:53 | 46.24415 | 20.61366 | 62° | 26km/h | 31086m | 6.3m/s | 0°C | 0% | 0hPa | 2.6V | 00:00:00 | 01:55:29 | 00:00:00 | |
| 9A1FER-3 | 2026-08-30 12:44:16 | 46.24285 | 20.61132 | 9° | 26km/h | 30836m | 7.4m/s | 0°C | 0% | 0hPa | 2.6V | 00:00:00 | 01:54:52 | 00:00:00 | |
| LZ4TU-5 | 2026-08-30 12:44:14 | 46.24283 | 20.61132 | 9° | 16km/h | 30830m | 5.8m/s | -40.6°C | 0.5% | 11.1hPa | 2.6V | 00:00:00 | 00:00:00 | 00:00:00 | |
| 9A1FER-3 | 2026-08-30 12:44:00 | 46.24202 | 20.61067 | 67° | 29km/h | 30737m | 6.6m/s | 0°C | 0% | 0hPa | 2.6V | 00:00:00 | 01:54:36 | 00:00:00 | |
| 9A1FER-3 | 2026-08-30 12:43:45 | 46.24152 | 20.60945 | 57° | 20km/h | 30631m | 6.9m/s | 0°C | 0% | 0hPa | 2.6V | 00:00:00 | 01:54:21 | 08:30:00 | |
| 9A1FER-3 | 2026-08-30 12:43:30 | 46.24092 | 20.60917 | 9° | 18km/h | 30525m | 6.3m/s | 0°C | 0% | 0hPa | 2.6V | 00:00:00 | 01:54:06 | 00:00:00 | |
| LZ4TU-5 | 2026-08-30 12:42:07 | 46.23904 | 20.60858 | 50° | 16km/h | 29939m | 7.1m/s | -42.0°C | 0.6% | 12.7hPa | 2.6V | 00:00:00 | 00:00:00 | 00:00:00 | |
| GYPAP8-17 | 2026-08-30 12:40:39 | 46.23759 | 20.60264 | 38° | 13km/h | 29349m | 6.1m/s | -43.9°C | 0.6% | 13.9hPa | 2.6V | 00:00:00 | 00:00:00 | 00:00:00 | |
| LZ4TU-5 | 2026-08-30 12:39:29 | 46.23534 | 20.59862 | 26° | 26km/h | 28901m | 5.2m/s | -46.0°C | 0.7% | 14.8hPa | 2.6V | 00:00:00 | 00:00:00 | 00:00:00 | |
| LZ4TU-5 | 2026-08-30 12:39:25 | 46.23505 | 20.59847 | 8° | 31km/h | 28874m | 6.7m/s | -46.2°C | 0.7% | 14.9hPa | 2.6V | 00:00:00 | 00:00:00 | 00:00:00 | |
| GYPAP8-17 | 2026-08-30 12:39:24 | 46.23499 | 20.59846 | 360° | 24km/h | 28867m | 7.6m/s | -46.1°C | 0.7% | 14.9hPa | 2.6V | 00:00:00 | 00:00:00 | 00:00:00 | |
| GYPAP8-17 | 2026-08-30 12:38:08 | 46.23152 | 20.59802 | 316° | 15km/h | 28369m | 6.7m/s | -47.2°C | 0.7% | 16.0hPa | 2.6V | 00:00:00 | 00:00:00 | 00:00:00 | |
| LZ4TU-5 | 2026-08-30 12:37:28 | 46.23022 | 20.59831 | 335° | 16km/h | 28107m | 6.2m/s | -47.9°C | 0.8% | 16.7hPa | 2.6V | 00:00:00 | 00:00:00 | 00:00:00 | |
| GYPAP8-17 | 2026-08-30 12:37:14 | 46.22958 | 20.59835 | 358° | 15km/h | 28005m | 6.1m/s | -47.9°C | 0.7% | 17.0hPa | 2.6V | 00:00:00 | 00:00:00 | 00:00:00 | |
| 9A1FER-10 | 2026-08-30 12:37:06 | 46.22910 | 20.59832 | 352° | 26km/h | 27954m | 6.9m/s | -48.0°C | 3.2% | 17.1hPa | 2.6V | 00:00:00 | 01:47:42 | 00:00:00 | |
| 9A1FER-10 | 2026-08-30 12:36:49 | 46.22816 | 20.59873 | 351° | 24km/h | 27843m | 7.6m/s | -48.1°C | 3.1% | 17.3hPa | 2.6V | 00:00:00 | 01:47:25 | 08:30:00 | |
| 9A1FER-10 | 2026-08-30 12:36:34 | 46.22742 | 20.59936 | 315° | 20km/h | 27747m | 6.0m/s | -48.6°C | 3.4% | 17.6hPa | 2.6V | 00:00:00 | 01:47:10 | 00:00:00 | |
| 9A1FER-10 | 2026-08-30 12:36:19 | 46.22709 | 20.60027 | 285° | 15km/h | 27650m | 7.4m/s | -48.6°C | 3.3% | 17.9hPa | 2.6V | 00:00:00 | 01:46:55 | 00:00:00 | |
| 9A1FER-10 | 2026-08-30 12:36:04 | 46.22687 | 20.60091 | 264° | 9km/h | 27553m | 5.1m/s | -48.5°C | 3.3% | 18.2hPa | 2.6V | 00:00:00 | 01:46:40 | 00:00:00 | |
| GYPAP8-17 | 2026-08-30 12:35:59 | 46.22689 | 20.60106 | 321° | 4km/h | 27529m | 5.8m/s | -48.5°C | 0.8% | 18.2hPa | 2.6V | 00:00:00 | 00:00:00 | 00:00:00 | |
| 9A1FER-10 | 2026-08-30 12:35:49 | 46.22681 | 20.60103 | 222° | 7km/h | 27459m | 7.1m/s | -48.7°C | 3.4% | 18.4hPa | 2.6V | 00:00:00 | 01:46:25 | 00:00:00 | |
| 9A1FER-10 | 2026-08-30 12:35:34 | 46.22692 | 20.60082 | 137° | 7km/h | 27363m | 5.8m/s | -48.7°C | 3.4% | 18.7hPa | 2.6V | 00:00:00 | 01:46:10 | 00:00:00 | |
| 9A1FER-10 | 2026-08-30 12:35:19 | 46.22672 | 20.60065 | 330° | 16km/h | 27266m | 8.0m/s | -48.8°C | 3.4% | 18.9hPa | 2.6V | 00:00:00 | 01:45:55 | 00:00:00 | |
| GYPAP8-17 | 2026-08-30 12:35:09 | 46.22638 | 20.60075 | 23° | 22km/h | 27209m | 5.1m/s | -48.9°C | 0.8% | 19.2hPa | 2.7V | 00:00:00 | 00:00:00 | 00:00:00 | |
| 9A1FER-10 | 2026-08-30 12:35:04 | 46.22617 | 20.60062 | 343° | 13km/h | 27170m | 5.4m/s | -48.7°C | 3.4% | 19.2hPa | 2.7V | 00:00:00 | 01:45:40 | 00:00:00 | |
| LZ4TU-5 | 2026-08-30 12:34:59 | 46.22607 | 20.60074 | 317° | 15km/h | 27145m | 5.7m/s | -48.5°C | 0.8% | 19.3hPa | 2.7V | 00:00:00 | 00:00:00 | 00:00:00 | |
| 9A1FER-10 | 2026-08-30 12:34:49 | 46.22574 | 20.60093 | 306° | 16km/h | 27071m | 6.7m/s | -48.5°C | 3.3% | 19.5hPa | 2.7V | 00:00:00 | 01:45:25 | 00:00:00 | |
| 9A1FER-10 | 2026-08-30 12:34:34 | 46.22521 | 20.60123 | 313° | 11km/h | 26971m | 7.0m/s | -48.5°C | 3.3% | 19.8hPa | 2.7V | 00:00:00 | 01:45:10 | 08:30:00 | |
| 9A1FER-10 | 2026-08-30 12:34:19 | 46.22495 | 20.60170 | 297° | 13km/h | 26872m | 6.1m/s | -48.7°C | 3.4% | 20.1hPa | 2.6V | 00:00:00 | 01:44:55 | 00:00:00 | |
| 9A1FER-10 | 2026-08-30 12:34:04 | 46.22474 | 20.60215 | 306° | 13km/h | 26774m | 7.5m/s | -49.1°C | 3.4% | 20.4hPa | 2.6V | 00:00:00 | 01:44:40 | 00:00:00 | |
| GYPAP8-17 | 2026-08-30 12:33:57 | 46.22460 | 20.60247 | 301° | 15km/h | 26734m | 7.9m/s | -49.1°C | 0.8% | 20.6hPa | 2.6V | 00:00:00 | 00:00:00 | 00:00:00 | |
| 9A1FER-10 | 2026-08-30 12:33:49 | 46.22448 | 20.60275 | 284° | 7km/h | 26672m | 7.8m/s | -49.0°C | 3.3% | 20.8hPa | 2.6V | 00:00:00 | 01:44:25 | 00:00:00 | |
| 9A1FER-10 | 2026-08-30 12:33:34 | 46.22445 | 20.60300 | 289° | 13km/h | 26572m | 7.0m/s | -49.4°C | 3.4% | 21.1hPa | 2.7V | 00:00:00 | 01:44:10 | 00:00:00 | |
| 9A1FER-10 | 2026-08-30 12:33:19 | 46.22458 | 20.60254 | 81° | 11km/h | 26475m | 5.7m/s | -49.2°C | 3.3% | 21.4hPa | 2.7V | 00:00:00 | 01:43:55 | 00:00:00 | |
| 9A1FER-10 | 2026-08-30 12:33:04 | 46.22439 | 20.60207 | 352° | 18km/h | 26380m | 5.0m/s | -49.8°C | 3.5% | 21.7hPa | 2.7V | 00:00:00 | 01:43:40 | 00:00:00 | |
| LZ4TU-5 | 2026-08-30 12:33:02 | 46.22433 | 20.60208 | 357° | 24km/h | 26374m | 7.4m/s | -49.8°C | 0.8% | 21.8hPa | 2.7V | 00:00:00 | 00:00:00 | 00:00:00 | |
| LZ4TU-5 | 2026-08-30 12:32:59 | 46.22409 | 20.60206 | 361° | 20km/h | 26349m | 7.7m/s | -49.8°C | 0.8% | 21.9hPa | 2.7V | 00:00:00 | 00:00:00 | 00:00:00 | |
| 9A1FER-10 | 2026-08-30 12:32:49 | 46.22371 | 20.60212 | 335° | 18km/h | 26282m | 5.6m/s | -50.4°C | 3.5% | 22.1hPa | 2.7V | 00:00:00 | 01:43:25 | 00:00:00 | |
| 9A1FER-10 | 2026-08-30 12:32:34 | 46.22310 | 20.60247 | 334° | 16km/h | 26187m | 7.1m/s | -50.9°C | 3.7% | 22.4hPa | 2.7V | 00:00:00 | 01:43:10 | 00:00:00 | |
| 9A1FER-10 | 2026-08-30 12:32:19 | 46.22260 | 20.60305 | 328° | 16km/h | 26092m | 5.9m/s | -50.8°C | 3.7% | 22.7hPa | 2.7V | 00:00:00 | 01:42:55 | 08:30:00 | |
| 9A1FER-10 | 2026-08-30 12:32:04 | 46.22220 | 20.60369 | 315° | 11km/h | 26000m | 4.9m/s | -50.5°C | 3.6% | 23.0hPa | 2.7V | 00:00:00 | 01:42:40 | 00:00:00 | |
| 9A1FER-10 | 2026-08-30 12:31:49 | 46.22215 | 20.60411 | 292° | 9km/h | 25910m | 5.6m/s | -50.6°C | 3.7% | 23.4hPa | 2.7V | 00:00:00 | 01:42:25 | 00:00:00 | |
| 9A1FER-10 | 2026-08-30 12:31:34 | 46.22194 | 20.60450 | 294° | 7km/h | 25817m | 5.3m/s | -50.0°C | 3.6% | 23.7hPa | 2.7V | 00:00:00 | 01:42:10 | 00:00:00 | |
| 9A1FER-10 | 2026-08-30 12:31:19 | 46.22179 | 20.60476 | 305° | 5km/h | 25728m | 7.3m/s | -49.9°C | 3.6% | 24.0hPa | 2.7V | 00:00:00 | 01:41:55 | 00:00:00 | |
| LZ4TU-5 | 2026-08-30 12:31:08 | 46.22164 | 20.60486 | 273° | 5km/h | 25668m | 6.9m/s | -49.9°C | 0.8% | 24.3hPa | 2.7V | 00:00:00 | 00:00:00 | 00:00:00 | |
| 9A1FER-10 | 2026-08-30 12:31:04 | 46.22166 | 20.60487 | 66° | 7km/h | 25638m | 6.0m/s | -49.8°C | 3.5% | 24.3hPa | 2.7V | 00:00:00 | 01:41:40 | 00:00:00 | |
| 9A1FER-10 | 2026-08-30 12:30:49 | 46.22155 | 20.60468 | 117° | 9km/h | 25545m | 5.3m/s | -49.8°C | 3.4% | 24.7hPa | 2.7V | 00:00:00 | 01:41:25 | 00:00:00 | |
| 9A1FER-10 | 2026-08-30 12:30:34 | 46.22136 | 20.60454 | 78° | 13km/h | 25455m | 6.2m/s | -50.6°C | 3.5% | 25.0hPa | 2.6V | 00:00:00 | 01:41:10 | 00:00:00 | |
| 9A1FER-10 | 2026-08-30 12:30:19 | 46.22098 | 20.60493 | 343° | 18km/h | 25365m | 4.8m/s | -51.8°C | 3.7% | 25.4hPa | 2.6V | 00:00:00 | 01:40:55 | 00:00:00 | |
| 9A1FER-10 | 2026-08-30 12:30:04 | 46.22082 | 20.60583 | 296° | 18km/h | 25269m | 5.0m/s | -52.3°C | 3.8% | 25.8hPa | 2.6V | 00:00:00 | 01:40:40 | 08:30:00 | |
| 9A1FER-3 | 2026-08-30 12:29:53 | 46.22108 | 20.60641 | 203° | 18km/h | 25202m | 6.7m/s | 0°C | 0% | 0hPa | 2.6V | 00:00:00 | 01:40:29 | 00:00:00 | |
| 9A1FER-10 | 2026-08-30 12:29:49 | 46.22127 | 20.60643 | 170° | 18km/h | 25175m | 7.3m/s | -52.3°C | 3.9% | 26.2hPa | 2.6V | 00:00:00 | 01:40:25 | 00:00:00 | |
| 9A1FER-3 | 2026-08-30 12:29:37 | 46.22172 | 20.60672 | 209° | 16km/h | 25096m | 7.1m/s | 0°C | 0% | 0hPa | 2.6V | 00:00:00 | 01:40:13 | 00:00:00 | |
| 9A1FER-10 | 2026-08-30 12:29:34 | 46.22186 | 20.60682 | 215° | 15km/h | 25079m | 7.0m/s | -52.0°C | 3.9% | 26.6hPa | 2.6V | 00:00:00 | 01:40:10 | 00:00:00 | |
| 9A1FER-10 | 2026-08-30 12:29:19 | 46.22238 | 20.60708 | 182° | 16km/h | 24982m | 7.1m/s | -51.6°C | 3.8% | 27.0hPa | 2.6V | 00:00:00 | 01:39:55 | 00:00:00 | |
| LZ4TU-5 | 2026-08-30 12:29:17 | 46.22244 | 20.60707 | 178° | 22km/h | 24975m | 6.0m/s | -51.6°C | 0.9% | 27.0hPa | 2.7V | 00:00:00 | 00:00:00 | 00:00:00 | |
| LZ4TU-5 | 2026-08-30 12:29:13 | 46.22263 | 20.60710 | 198° | 15km/h | 24952m | 4.8m/s | -51.7°C | 0.9% | 27.1hPa | 2.7V | 00:00:00 | 00:00:00 | 00:00:00 | |
| 9A1FER-3 | 2026-08-30 12:29:06 | 46.22290 | 20.60707 | 137° | 24km/h | 24903m | 7.2m/s | 0°C | 0% | 0hPa | 2.7V | 00:00:00 | 01:39:42 | 00:00:00 | |
| 9A1FER-10 | 2026-08-30 12:29:04 | 46.22297 | 20.60697 | 136° | 16km/h | 24889m | 6.2m/s | -51.4°C | 3.7% | 27.4hPa | 2.7V | 00:00:00 | 01:39:40 | 00:00:00 | |
| 9A1FER-10 | 2026-08-30 12:28:49 | 46.22332 | 20.60630 | 112° | 26km/h | 24794m | 7.1m/s | -51.8°C | 3.8% | 27.8hPa | 2.7V | 00:00:00 | 01:39:25 | 00:00:00 | |
| 9A1FER-3 | 2026-08-30 12:28:38 | 46.22349 | 20.60532 | 101° | 16km/h | 24723m | 6.4m/s | 0°C | 0% | 0hPa | 2.7V | 00:00:00 | 01:39:14 | 00:00:00 | |
| 9A1FER-10 | 2026-08-30 12:28:34 | 46.22350 | 20.60497 | 98° | 18km/h | 24699m | 7.2m/s | -51.8°C | 3.8% | 28.2hPa | 2.7V | 00:00:00 | 01:39:10 | 00:00:00 | |
| 9A1FER-10 | 2026-08-30 12:28:19 | 46.22342 | 20.60399 | 94° | 7km/h | 24609m | 7.1m/s | -51.6°C | 3.8% | 28.6hPa | 2.7V | 00:00:00 | 01:38:55 | 00:00:00 | |
| 9A1FER-10 | 2026-08-30 12:28:04 | 46.22336 | 20.60366 | 34° | 9km/h | 24518m | 4.7m/s | -51.6°C | 3.8% | 29.0hPa | 2.7V | 00:00:00 | 01:38:40 | 00:00:00 | |
| OM5KV | 2026-08-30 12:27:51 | 46.22334 | 20.60368 | 211° | 16km/h | 24445m | 7.2m/s | 0°C | 0% | 0hPa | 2.7V | 00:00:00 | 00:00:00 | 00:00:00 | |
| 9A1FER-10 | 2026-08-30 12:27:49 | 46.22345 | 20.60378 | 231° | 13km/h | 24427m | 6.8m/s | -51.8°C | 3.8% | 29.4hPa | 2.7V | 00:00:00 | 01:38:25 | 08:30:00 | |
| 9A1FER-10 | 2026-08-30 12:27:34 | 46.22359 | 20.60438 | 244° | 11km/h | 24336m | 6.1m/s | -52.3°C | 3.9% | 29.8hPa | 2.6V | 00:00:00 | 01:38:10 | 00:00:00 | |
| 9A1FER-10 | 2026-08-30 12:27:19 | 46.22360 | 20.60482 | 235° | 7km/h | 24249m | 4.9m/s | -52.2°C | 3.8% | 30.2hPa | 2.6V | 00:00:00 | 01:37:55 | 00:00:00 | |
| 9A1FER-10 | 2026-08-30 12:27:04 | 46.22356 | 20.60517 | 344° | 4km/h | 24165m | 6.5m/s | -52.5°C | 4.0% | 30.6hPa | 2.6V | 00:00:00 | 01:37:40 | 00:00:00 | |
| LZ4TU-5 | 2026-08-30 12:26:48 | 46.22338 | 20.60530 | 340° | 7km/h | 24078m | 6.1m/s | -52.1°C | 0.9% | 31.1hPa | 2.6V | 00:00:00 | 00:00:00 | 00:00:00 | |
| 9A1FER-10 | 2026-08-30 12:26:47 | 46.22335 | 20.60532 | 342° | 7km/h | 24067m | 6.2m/s | -52.0°C | 3.8% | 31.1hPa | 2.6V | 00:00:00 | 01:37:23 | 00:00:00 | |
| 9A1FER-3 | 2026-08-30 12:26:42 | 46.22325 | 20.60544 | 296° | 15km/h | 24037m | 5.5m/s | 0°C | 0% | 0hPa | 2.6V | 00:00:00 | 01:37:18 | 00:00:00 | |
| 9A1FER-10 | 2026-08-30 12:26:32 | 46.22307 | 20.60566 | 313° | 16km/h | 23979m | 6.0m/s | -52.2°C | 3.8% | 31.5hPa | 2.6V | 00:00:00 | 01:37:08 | 00:00:00 | |
| 9A1FER-3 | 2026-08-30 12:26:26 | 46.22292 | 20.60603 | 291° | 15km/h | 23942m | 7.0m/s | 0°C | 0% | 0hPa | 2.6V | 00:00:00 | 01:37:02 | 00:00:00 | |
| 9A1FER-10 | 2026-08-30 12:26:17 | 46.22288 | 20.60653 | 293° | 13km/h | 23888m | 6.4m/s | -53.0°C | 4.0% | 32.0hPa | 2.6V | 00:00:00 | 01:36:53 | 00:00:00 | |
| 9A1FER-3 | 2026-08-30 12:26:11 | 46.22281 | 20.60682 | 294° | 15km/h | 23851m | 6.1m/s | 0°C | 0% | 0hPa | 2.6V | 00:00:00 | 01:36:47 | 00:00:00 | |
| 9A1FER-10 | 2026-08-30 12:26:02 | 46.22278 | 20.60718 | 118° | 7km/h | 23798m | 6.6m/s | -53.5°C | 4.0% | 32.4hPa | 2.6V | 00:00:00 | 01:36:38 | 00:00:00 | |
| 9A1FER-10 | 2026-08-30 12:25:47 | 46.22265 | 20.60720 | 42° | 11km/h | 23706m | 7.2m/s | -53.8°C | 4.1% | 32.9hPa | 2.6V | 00:00:00 | 01:36:23 | 00:00:00 | |
| OM5KV | 2026-08-30 12:25:36 | 46.22227 | 20.60721 | 345° | 22km/h | 23645m | 5.0m/s | 0°C | 0% | 0hPa | 2.6V | 00:00:00 | 00:00:00 | 00:00:00 | |
| OM5KV | 2026-08-30 12:25:35 | 46.22216 | 20.60724 | 359° | 22km/h | 23633m | 5.6m/s | 0°C | 0% | 0hPa | 2.6V | 00:00:00 | 00:00:00 | 00:00:00 | |
| GYPAP8-17 | 2026-08-30 12:25:16 | 46.22159 | 20.60725 | 39° | 11km/h | 23524m | 5.5m/s | -53.9°C | 1.0% | 33.9hPa | 2.6V | 00:00:00 | 00:00:00 | 00:00:00 | |
| 9A1FER-10 | 2026-08-30 12:24:56 | 46.22149 | 20.60708 | 286° | 9km/h | 23398m | 6.5m/s | -54.7°C | 4.3% | 34.5hPa | 2.6V | 00:00:00 | 01:35:32 | 08:30:00 | |
| LZ4TU-5 | 2026-08-30 12:24:48 | 46.22143 | 20.60722 | 173° | 7km/h | 23357m | 6.1m/s | -54.9°C | 1.1% | 34.8hPa | 2.7V | 00:00:00 | 00:00:00 | 00:00:00 | |
| 9A1FER-10 | 2026-08-30 12:24:41 | 46.22151 | 20.60703 | 44° | 7km/h | 23310m | 4.7m/s | -54.8°C | 4.4% | 35.0hPa | 2.7V | 00:00:00 | 01:35:17 | 00:00:00 | |
| 9A1FER-10 | 2026-08-30 12:24:25 | 46.22130 | 20.60673 | 3° | 16km/h | 23212m | 5.2m/s | -54.7°C | 4.5% | 35.5hPa | 2.7V | 00:00:00 | 01:35:01 | 00:00:00 | |
| 9A1FER-10 | 2026-08-30 12:24:10 | 46.22073 | 20.60663 | 344° | 24km/h | 23126m | 5.7m/s | -54.2°C | 4.3% | 36.0hPa | 2.7V | 00:00:00 | 01:34:46 | 00:00:00 | |
| 9A1FER-10 | 2026-08-30 12:23:55 | 46.21984 | 20.60670 | 347° | 26km/h | 23037m | 5.3m/s | -54.2°C | 4.3% | 36.5hPa | 2.6V | 00:00:00 | 01:34:31 | 00:00:00 | |
| 9A1FER-10 | 2026-08-30 12:23:39 | 46.21882 | 20.60697 | 337° | 16km/h | 22943m | 6.2m/s | -53.9°C | 4.2% | 37.1hPa | 2.6V | 00:00:00 | 01:34:15 | 00:00:00 | |
| 9A1FER-10 | 2026-08-30 12:22:49 | 46.21734 | 20.60935 | 275° | 16km/h | 22650m | 6.8m/s | -54.0°C | 4.1% | 38.8hPa | 2.6V | 00:00:00 | 01:33:25 | 00:00:00 | |
| LZ4TU-5 | 2026-08-30 12:22:39 | 46.21754 | 20.60987 | 207° | 11km/h | 22591m | 6.0m/s | -53.9°C | 1.0% | 39.3hPa | 2.7V | 00:00:00 | 00:00:00 | 00:00:00 | |
| 9A1FER-10 | 2026-08-30 12:22:34 | 46.21760 | 20.61008 | 278° | 15km/h | 22562m | 7.0m/s | -54.3°C | 4.2% | 39.4hPa | 2.7V | 00:00:00 | 01:33:10 | 00:00:00 | |
| 9A1FER-10 | 2026-08-30 12:22:19 | 46.21764 | 20.61085 | 272° | 9km/h | 22473m | 4.6m/s | -54.3°C | 4.2% | 39.9hPa | 2.7V | 00:00:00 | 01:32:55 | 00:00:00 | |
| 9A1FER-10 | 2026-08-30 12:22:04 | 46.21782 | 20.61102 | 80° | 11km/h | 22388m | 4.7m/s | -54.5°C | 4.3% | 40.4hPa | 2.7V | 00:00:00 | 01:32:40 | 08:30:00 | |
| 9A1FER-10 | 2026-08-30 12:21:49 | 46.21798 | 20.61052 | 118° | 5km/h | 22303m | 5.7m/s | -54.5°C | 4.3% | 41.0hPa | 2.7V | 00:00:00 | 01:32:25 | 00:00:00 | |
| 9A1FER-10 | 2026-08-30 12:21:34 | 46.21805 | 20.61029 | 42° | 11km/h | 22221m | 5.3m/s | -54.7°C | 4.2% | 41.5hPa | 2.7V | 00:00:00 | 01:32:10 | 00:00:00 | |
| 9A1FER-10 | 2026-08-30 12:21:20 | 46.21769 | 20.61051 | 320° | 22km/h | 22133m | 5.0m/s | -55.4°C | 4.5% | 42.1hPa | 2.7V | 00:00:00 | 01:31:55 | 00:00:00 | |
| 9A1FER-10 | 2026-08-30 12:21:04 | 46.21698 | 20.61112 | 343° | 24km/h | 22046m | 6.5m/s | -55.4°C | 4.4% | 42.7hPa | 2.6V | 00:00:00 | 01:31:40 | 00:00:00 | |
| 9A1FER-10 | 2026-08-30 12:20:49 | 46.21628 | 20.61193 | 333° | 26km/h | 21958m | 5.1m/s | -55.6°C | 4.5% | 43.3hPa | 2.6V | 00:00:00 | 01:31:25 | 00:00:00 | |
| LZ4TU-5 | 2026-08-30 12:20:46 | 46.21615 | 20.61203 | 331° | 29km/h | 21946m | 5.7m/s | -55.6°C | 1.2% | 43.4hPa | 2.6V | 00:00:00 | 00:00:00 | 00:00:00 | |
| LZ4TU-5 | 2026-08-30 12:20:42 | 46.21594 | 20.61223 | 311° | 22km/h | 21923m | 5.7m/s | -55.6°C | 1.2% | 43.6hPa | 2.6V | 00:00:00 | 00:00:00 | 00:00:00 | |
| 9A1FER-10 | 2026-08-30 12:20:34 | 46.21558 | 20.61282 | 334° | 16km/h | 21872m | 6.2m/s | -55.5°C | 4.5% | 43.9hPa | 2.6V | 00:00:00 | 01:31:10 | 00:00:00 | |
| 9A1FER-10 | 2026-08-30 12:20:19 | 46.21519 | 20.61338 | 328° | 9km/h | 21789m | 6.6m/s | -55.2°C | 4.4% | 44.5hPa | 2.7V | 00:00:00 | 01:30:55 | 00:00:00 | |
| 9A1FER-10 | 2026-08-30 12:20:04 | 46.21494 | 20.61370 | 340° | 9km/h | 21702m | 5.1m/s | -55.1°C | 4.5% | 45.1hPa | 2.7V | 00:00:00 | 01:30:40 | 00:00:00 | |
| 9A1FER-10 | 2026-08-30 12:19:49 | 46.21472 | 20.61401 | 276° | 15km/h | 21617m | 5.1m/s | -54.8°C | 4.3% | 45.7hPa | 2.7V | 00:00:00 | 01:30:25 | 08:30:00 | |
| 9A1FER-10 | 2026-08-30 12:19:34 | 46.21449 | 20.61475 | 275° | 15km/h | 21532m | 6.0m/s | -54.9°C | 4.4% | 46.3hPa | 2.6V | 00:00:00 | 01:30:10 | 00:00:00 | |
| 9A1FER-10 | 2026-08-30 12:19:19 | 46.21444 | 20.61550 | 222° | 9km/h | 21443m | 7.2m/s | -54.8°C | 4.4% | 46.9hPa | 2.6V | 00:00:00 | 01:29:55 | 00:00:00 | |
| 9A1FER-10 | 2026-08-30 12:19:04 | 46.21451 | 20.61585 | 192° | 4km/h | 21358m | 6.7m/s | -54.5°C | 4.4% | 47.6hPa | 2.6V | 00:00:00 | 01:29:40 | 00:00:00 | |
| LZ4TU-5 | 2026-08-30 12:18:53 | 46.21460 | 20.61583 | 194° | 5km/h | 21300m | 5.4m/s | -54.4°C | 0% | 48.1hPa | 2.6V | 00:00:00 | 00:00:00 | 00:00:00 | |
| 9A1FER-10 | 2026-08-30 12:18:49 | 46.21465 | 20.61584 | 121° | 11km/h | 21272m | 5.1m/s | -54.3°C | 4.3% | 48.2hPa | 2.6V | 00:00:00 | 01:29:25 | 00:00:00 | |
| 9A1FER-10 | 2026-08-30 12:18:34 | 46.21498 | 20.61559 | 143° | 15km/h | 21188m | 5.1m/s | -54.4°C | 4.3% | 48.8hPa | 2.6V | 00:00:00 | 01:29:10 | 00:00:00 | |
| 9A1FER-10 | 2026-08-30 12:18:19 | 46.21528 | 20.61491 | 119° | 13km/h | 21104m | 6.4m/s | -54.2°C | 4.2% | 49.5hPa | 2.6V | 00:00:00 | 01:28:55 | 00:00:00 | |
| 9A1FER-10 | 2026-08-30 12:18:04 | 46.21551 | 20.61435 | 101° | 5km/h | 21022m | 4.5m/s | -54.3°C | 4.2% | 50.1hPa | 2.7V | 00:00:00 | 01:28:40 | 00:00:00 | |
| 9A1FER-10 | 2026-08-30 12:17:49 | 46.21568 | 20.61441 | 257° | 15km/h | 20939m | 5.3m/s | -54.9°C | 4.4% | 50.8hPa | 2.7V | 00:00:00 | 01:28:25 | 00:00:00 | |
| 9A1FER-10 | 2026-08-30 12:17:33 | 46.21593 | 20.61484 | 194° | 11km/h | 20852m | 4.6m/s | -55.1°C | 4.4% | 51.5hPa | 2.7V | 00:00:00 | 01:28:09 | 08:30:00 | |
| 9A1FER-10 | 2026-08-30 12:17:18 | 46.21628 | 20.61467 | 125° | 9km/h | 20768m | 6.6m/s | -54.9°C | 4.3% | 52.2hPa | 2.7V | 00:00:00 | 01:27:54 | 00:00:00 | |
| 9A1FER-10 | 2026-08-30 12:17:03 | 46.21651 | 20.61430 | 126° | 9km/h | 20686m | 6.1m/s | -55.2°C | 4.3% | 52.9hPa | 2.7V | 00:00:00 | 01:27:39 | 00:00:00 | |
| LZ4TU-5 | 2026-08-30 12:17:00 | 46.21653 | 20.61423 | 122° | 7km/h | 20670m | 5.3m/s | -55.2°C | 0% | 53.1hPa | 2.7V | 00:00:00 | 00:00:00 | 00:00:00 | |
| LZ4TU-5 | 2026-08-30 12:16:55 | 46.21655 | 20.61411 | 68° | 9km/h | 20648m | 6.1m/s | -55.5°C | 0% | 53.3hPa | 2.7V | 00:00:00 | 00:00:00 | 00:00:00 | |
| 9A1FER-10 | 2026-08-30 12:16:48 | 46.21645 | 20.61380 | 88° | 13km/h | 20604m | 5.9m/s | -55.5°C | 4.6% | 53.6hPa | 2.7V | 00:00:00 | 01:27:24 | 00:00:00 | |
| 9A1FER-10 | 2026-08-30 12:16:33 | 46.21608 | 20.61343 | 10° | 9km/h | 20523m | 4.7m/s | -55.1°C | 4.5% | 54.3hPa | 2.6V | 00:00:00 | 01:27:09 | 00:00:00 | |
| 9A1FER-10 | 2026-08-30 12:16:18 | 46.21582 | 20.61332 | 358° | 9km/h | 20441m | 6.0m/s | -54.8°C | 4.2% | 55.0hPa | 2.6V | 00:00:00 | 01:26:54 | 00:00:00 | |
| 9A1FER-10 | 2026-08-30 12:16:03 | 46.21555 | 20.61341 | 335° | 11km/h | 20362m | 5.8m/s | -55.1°C | 4.3% | 55.7hPa | 2.6V | 00:00:00 | 01:26:39 | 00:00:00 | |
| 9A1FER-10 | 2026-08-30 12:15:48 | 46.21518 | 20.61341 | 357° | 11km/h | 20279m | 5.8m/s | -55.3°C | 4.4% | 56.4hPa | 2.7V | 00:00:00 | 01:26:24 | 00:00:00 | |
| 9A1FER-10 | 2026-08-30 12:15:33 | 46.21475 | 20.61330 | 26° | 11km/h | 20196m | 4.6m/s | -55.3°C | 4.4% | 57.1hPa | 2.7V | 00:00:00 | 01:26:09 | 00:00:00 | |
| 9A1FER-10 | 2026-08-30 12:15:18 | 46.21447 | 20.61287 | 23° | 7km/h | 20114m | 5.1m/s | -55.7°C | 4.5% | 57.8hPa | 2.7V | 00:00:00 | 01:25:54 | 08:30:00 | |
| LZ4TU-5 | 2026-08-30 12:15:00 | 46.21420 | 20.61295 | 310° | 7km/h | 20019m | 5.9m/s | -55.5°C | 0% | 58.7hPa | 2.6V | 00:00:00 | 00:00:00 | 00:00:00 | |
| 9A1FER-10 | 2026-08-30 12:14:48 | 46.21401 | 20.61277 | 30° | 9km/h | 19948m | 6.4m/s | -55.0°C | 4.4% | 59.4hPa | 2.6V | 00:00:00 | 01:25:24 | 00:00:00 | |
| 9A1FER-10 | 2026-08-30 12:14:34 | 46.21370 | 20.61252 | 16° | 9km/h | 19864m | 4.8m/s | -54.6°C | 4.3% | 60.2hPa | 2.6V | 00:00:00 | 01:25:09 | 00:00:00 | |
| 9A1FER-10 | 2026-08-30 12:14:18 | 46.21340 | 20.61238 | 355° | 16km/h | 19782m | 5.5m/s | -55.0°C | 4.3% | 60.9hPa | 2.6V | 00:00:00 | 01:24:54 | 00:00:00 | |
| 9A1FER-10 | 2026-08-30 12:14:03 | 46.21283 | 20.61211 | 7° | 16km/h | 19701m | 3.9m/s | -54.8°C | 4.4% | 61.7hPa | 2.6V | 00:00:00 | 01:24:39 | 00:00:00 | |
| OM5KV | 2026-08-30 12:13:51 | 46.21238 | 20.61196 | 21° | 13km/h | 19642m | 4.7m/s | -55.0°C | 1.2% | 62.4hPa | 2.6V | 00:00:00 | 00:00:00 | 00:00:00 | |
| 9A1FER-10 | 2026-08-30 12:13:48 | 46.21224 | 20.61194 | 2° | 15km/h | 19619m | 6.4m/s | -55.0°C | 4.3% | 62.5hPa | 2.6V | 00:00:00 | 01:24:24 | 00:00:00 | |
| 9A1FER-10 | 2026-08-30 12:13:33 | 46.21173 | 20.61168 | 21° | 16km/h | 19540m | 5.1m/s | -55.1°C | 4.4% | 63.3hPa | 2.7V | 00:00:00 | 01:24:09 | 00:00:00 | |
| 9A1FER-10 | 2026-08-30 12:13:18 | 46.21119 | 20.61120 | 19° | 20km/h | 19463m | 3.9m/s | -55.1°C | 4.4% | 64.1hPa | 2.7V | 00:00:00 | 01:23:54 | 00:00:00 | |
| OM5KV | 2026-08-30 12:13:12 | 46.21096 | 20.61114 | 13° | 18km/h | 19437m | 5.7m/s | -55.1°C | 1.2% | 64.4hPa | 2.7V | 00:00:00 | 00:00:00 | 00:00:00 | |
| OM5KV | 2026-08-30 12:13:09 | 46.21078 | 20.61108 | 15° | 20km/h | 19415m | 4.9m/s | -55.4°C | 1.2% | 64.6hPa | 2.7V | 00:00:00 | 00:00:00 | 00:00:00 | |
| OM5KV | 2026-08-30 12:13:06 | 46.21068 | 20.61104 | 14° | 22km/h | 19405m | 4.0m/s | -55.4°C | 1.2% | 64.7hPa | 2.7V | 00:00:00 | 00:00:00 | 00:00:00 | |
| LZ4TU-5 | 2026-08-30 12:13:04 | 46.21056 | 20.61102 | 361° | 29km/h | 19394m | 5.8m/s | -55.4°C | 0% | 0hPa | 2.7V | 00:00:00 | 00:00:00 | 00:00:00 | |
| 9A1FER-10 | 2026-08-30 12:13:03 | 46.21041 | 20.61103 | 353° | 24km/h | 19383m | 6.1m/s | -55.4°C | 4.5% | 64.9hPa | 2.7V | 00:00:00 | 01:23:39 | 08:30:00 | |
| OM5KV | 2026-08-30 12:13:02 | 46.21041 | 20.61103 | 353° | 29km/h | 19383m | 6.2m/s | -55.4°C | 1.2% | 64.9hPa | 2.7V | 00:00:00 | 00:00:00 | 00:00:00 | |
| OM5KV | 2026-08-30 12:12:50 | 46.20966 | 20.61124 | 357° | 22km/h | 19313m | 4.4m/s | -54.9°C | 1.2% | 65.6hPa | 2.7V | 00:00:00 | 00:00:00 | 00:00:00 | |
| 9A1FER-10 | 2026-08-30 12:12:48 | 46.20955 | 20.61127 | 345° | 18km/h | 19302m | 5.1m/s | -54.9°C | 4.3% | 65.7hPa | 2.7V | 00:00:00 | 01:23:24 | 00:00:00 | |
| OM5KV | 2026-08-30 12:12:43 | 46.20938 | 20.61139 | 334° | 15km/h | 19282m | 3.9m/s | -55.0°C | 1.2% | 65.9hPa | 2.7V | 00:00:00 | 00:00:00 | 00:00:00 | |
| OM5KV | 2026-08-30 12:12:38 | 46.20918 | 20.61144 | 361° | 15km/h | 19256m | 4.5m/s | -55.1°C | 1.2% | 66.2hPa | 2.7V | 00:00:00 | 00:00:00 | 00:00:00 | |
| OM5KV | 2026-08-30 12:12:34 | 46.20897 | 20.61150 | 336° | 13km/h | 19230m | 4.7m/s | -55.2°C | 1.2% | 66.5hPa | 2.7V | 00:00:00 | 00:00:00 | 00:00:00 | |
| 9A1FER-10 | 2026-08-30 12:12:33 | 46.20894 | 20.61152 | 336° | 16km/h | 19224m | 5.3m/s | -55.2°C | 4.3% | 66.5hPa | 2.7V | 00:00:00 | 01:23:09 | 00:00:00 | |
| OM5KV | 2026-08-30 12:12:27 | 46.20871 | 20.61166 | 360° | 15km/h | 19193m | 5.3m/s | -55.5°C | 1.2% | 66.9hPa | 2.7V | 00:00:00 | 00:00:00 | 00:00:00 | |
| OM5KV | 2026-08-30 12:12:21 | 46.20852 | 20.61157 | 20° | 13km/h | 19166m | 3.7m/s | -55.5°C | 1.2% | 67.2hPa | 2.7V | 00:00:00 | 00:00:00 | 00:00:00 | |
| 9A1FER-10 | 2026-08-30 12:12:18 | 46.20838 | 20.61158 | 347° | 18km/h | 19145m | 6.0m/s | -55.7°C | 4.4% | 67.3hPa | 2.7V | 00:00:00 | 01:22:54 | 00:00:00 | |
| 9A1FER-10 | 2026-08-30 12:12:03 | 46.20780 | 20.61105 | 34° | 18km/h | 19067m | 6.0m/s | -56.2°C | 4.7% | 68.2hPa | 2.6V | 00:00:00 | 01:22:39 | 00:00:00 | |
| 9A1FER-10 | 2026-08-30 12:11:48 | 46.20717 | 20.61093 | 343° | 13km/h | 18984m | 5.2m/s | -55.7°C | 4.6% | 69.1hPa | 2.6V | 00:00:00 | 01:22:24 | 00:00:00 | |
| 9A1FER-10 | 2026-08-30 12:11:33 | 46.20672 | 20.61115 | 347° | 15km/h | 18904m | 4.5m/s | -55.4°C | 4.4% | 70.0hPa | 2.6V | 00:00:00 | 01:22:09 | 00:00:00 | |
| 9A1FER-10 | 2026-08-30 12:11:18 | 46.20629 | 20.61158 | 272° | 5km/h | 18823m | 6.1m/s | -55.8°C | 4.5% | 70.8hPa | 2.6V | 00:00:00 | 01:21:54 | 00:00:00 | |
| LZ4TU-5 | 2026-08-30 12:11:14 | 46.20631 | 20.61166 | 266° | 9km/h | 18806m | 5.1m/s | -55.8°C | 0% | 0hPa | 2.6V | 00:00:00 | 00:00:00 | 00:00:00 | |
| 9A1FER-10 | 2026-08-30 12:11:03 | 46.20625 | 20.61188 | 261° | 5km/h | 18744m | 3.6m/s | -55.7°C | 4.5% | 71.7hPa | 2.6V | 00:00:00 | 01:21:39 | 00:00:00 | |
| 9A1FER-10 | 2026-08-30 12:10:48 | 46.20607 | 20.61190 | 9° | 5km/h | 18664m | 4.6m/s | -55.6°C | 4.5% | 72.6hPa | 2.6V | 00:00:00 | 01:21:24 | 08:30:00 | |
| 9A1FER-10 | 2026-08-30 12:10:33 | 46.20594 | 20.61177 | 124° | 7km/h | 18587m | 3.7m/s | -55.4°C | 4.5% | 73.5hPa | 2.7V | 00:00:00 | 01:21:09 | 00:00:00 | |
| 9A1FER-10 | 2026-08-30 12:10:18 | 46.20576 | 20.61152 | 41° | 13km/h | 18508m | 4.5m/s | -55.1°C | 4.3% | 74.4hPa | 2.7V | 00:00:00 | 01:20:54 | 00:00:00 | |
| 9A1FER-10 | 2026-08-30 12:10:03 | 46.20532 | 20.61117 | 41° | 16km/h | 18432m | 5.4m/s | -55.7°C | 4.5% | 75.4hPa | 2.7V | 00:00:00 | 01:20:39 | 00:00:00 | |
| 9A1FER-10 | 2026-08-30 12:09:48 | 46.20500 | 20.61039 | 67° | 13km/h | 18354m | 3.9m/s | -56.0°C | 4.5% | 76.3hPa | 2.7V | 00:00:00 | 01:20:24 | 00:00:00 | |
| 9A1FER-10 | 2026-08-30 12:09:33 | 46.20475 | 20.60980 | 50° | 11km/h | 18279m | 5.9m/s | -56.6°C | 4.8% | 77.2hPa | 2.7V | 00:00:00 | 01:20:09 | 00:00:00 | |
| LZ4TU-5 | 2026-08-30 12:09:32 | 46.20475 | 20.60980 | 51° | 13km/h | 18279m | 5.9m/s | -56.7°C | 0% | 0hPa | 2.7V | 00:00:00 | 00:00:00 | 00:00:00 | |
| LZ4TU-5 | 2026-08-30 12:09:29 | 46.20468 | 20.60965 | 62° | 13km/h | 18258m | 5.0m/s | -56.6°C | 0% | 0hPa | 2.7V | 00:00:00 | 00:00:00 | 00:00:00 | |
| 9A1FER-10 | 2026-08-30 12:09:18 | 46.20474 | 20.60936 | 119° | 15km/h | 18198m | 6.6m/s | -56.3°C | 4.7% | 78.2hPa | 2.7V | 00:00:00 | 01:19:54 | 00:00:00 | |
| 9A1FER-10 | 2026-08-30 12:09:03 | 46.20509 | 20.60869 | 123° | 22km/h | 18115m | 6.6m/s | -56.1°C | 4.6% | 79.2hPa | 2.7V | 00:00:00 | 01:19:39 | 00:00:00 | |
| 9A1FER-10 | 2026-08-30 12:08:48 | 46.20562 | 20.60775 | 122° | 35km/h | 18036m | 6.3m/s | -57.0°C | 4.7% | 80.2hPa | 2.7V | 00:00:00 | 01:19:24 | 00:00:00 | |
| 9A1FER-10 | 2026-08-30 12:08:33 | 46.20626 | 20.60610 | 111° | 40km/h | 17957m | 5.6m/s | -57.8°C | 5.0% | 81.3hPa | 2.7V | 00:00:00 | 01:19:09 | 08:30:00 | |
| 9A1FER-10 | 2026-08-30 12:08:18 | 46.20667 | 20.60401 | 97° | 37km/h | 17879m | 5.8m/s | -58.4°C | 5.2% | 82.2hPa | 2.7V | 00:00:00 | 01:18:54 | 00:00:00 | |
| 9A1FER-10 | 2026-08-30 12:08:03 | 46.20679 | 20.60200 | 87° | 31km/h | 17801m | 6.2m/s | -58.6°C | 5.4% | 83.2hPa | 2.7V | 00:00:00 | 01:18:39 | 00:00:00 | |
| 9A1FER-10 | 2026-08-30 12:07:48 | 46.20684 | 20.60033 | 89° | 29km/h | 17724m | 5.7m/s | -58.2°C | 5.3% | 84.3hPa | 2.7V | 00:00:00 | 01:18:24 | 00:00:00 | |
| LZ4TU-5 | 2026-08-30 12:07:43 | 46.20682 | 20.59992 | 91° | 33km/h | 17703m | 4.7m/s | -58.1°C | 0% | 0hPa | 2.7V | 00:00:00 | 00:00:00 | 00:00:00 | |
| LZ4TU-5 | 2026-08-30 12:07:38 | 46.20684 | 20.59932 | 99° | 33km/h | 17677m | 3.7m/s | -57.9°C | 0% | 0hPa | 2.7V | 00:00:00 | 00:00:00 | 00:00:00 | |
| 9A1FER-10 | 2026-08-30 12:07:33 | 46.20687 | 20.59876 | 100° | 27km/h | 17648m | 4.7m/s | -57.8°C | 5.1% | 85.4hPa | 2.7V | 00:00:00 | 01:18:09 | 00:00:00 | |
| 9A1FER-10 | 2026-08-30 12:07:18 | 46.20697 | 20.59726 | 94° | 26km/h | 17570m | 4.6m/s | -58.1°C | 5.3% | 86.4hPa | 2.7V | 00:00:00 | 01:17:54 | 00:00:00 | |
| LZ4TU-5 | 2026-08-30 12:06:01 | 46.20618 | 20.59092 | 55° | 22km/h | 17181m | 4.0m/s | -58.3°C | 0% | 0hPa | 2.7V | 00:00:00 | 00:00:00 | 00:00:00 | |
| LZ4TU-5 | 2026-08-30 12:05:56 | 46.20598 | 20.59061 | 47° | 20km/h | 17156m | 4.6m/s | -58.4°C | 0% | 0hPa | 2.7V | 00:00:00 | 00:00:00 | 00:00:00 | |
| LZ4TU-5 | 2026-08-30 12:04:13 | 46.20506 | 20.58760 | 121° | 15km/h | 16612m | 4.3m/s | -57.0°C | 0% | 0hPa | 2.7V | 00:00:00 | 00:00:00 | 00:00:00 | |
| LZ4TU-5 | 2026-08-30 12:04:08 | 46.20516 | 20.58735 | 121° | 15km/h | 16586m | 4.4m/s | -56.9°C | 0% | 0hPa | 2.7V | 00:00:00 | 00:00:00 | 00:00:00 | |
| GYPAP8-17 | 2026-08-30 12:03:33 | 46.20581 | 20.58416 | 101° | 37km/h | 16397m | 5.2m/s | -56.2°C | 1.6% | 104.1hPa | 2.7V | 00:00:00 | 00:00:00 | 00:00:00 | |
| LZ4TU-5 | 2026-08-30 12:02:18 | 46.20625 | 20.57157 | 90° | 47km/h | 16030m | 4.3m/s | -58.1°C | 0% | 0hPa | 2.7V | 00:00:00 | 00:00:00 | 00:00:00 | |
| LZ4TU-5 | 2026-08-30 12:02:13 | 46.20626 | 20.57070 | 92° | 47km/h | 16005m | 4.7m/s | -58.7°C | 0% | 0hPa | 2.7V | 00:00:00 | 00:00:00 | 00:00:00 | |
| 9A1FER-10 | 2026-08-30 12:02:07 | 46.20621 | 20.56939 | 88° | 49km/h | 15970m | 4.4m/s | -58.9°C | 6.0% | 111.3hPa | 2.7V | 00:00:00 | 01:12:43 | 00:00:00 | |
| 9A1FER-10 | 2026-08-30 12:01:48 | 46.20558 | 20.56608 | 77° | 44km/h | 15877m | 5.8m/s | -58.4°C | 5.9% | 112.9hPa | 2.7V | 00:00:00 | 01:12:24 | 00:00:00 | |
| 9A1FER-10 | 2026-08-30 12:01:33 | 46.20509 | 20.56386 | 70° | 37km/h | 15798m | 4.0m/s | -58.0°C | 5.9% | 114.3hPa | 2.7V | 00:00:00 | 01:12:09 | 00:00:00 | |
| 9A1FER-10 | 2026-08-30 12:01:18 | 46.20465 | 20.56201 | 79° | 33km/h | 15722m | 3.2m/s | -57.4°C | 5.7% | 115.7hPa | 2.7V | 00:00:00 | 01:11:54 | 08:30:00 | |
| LZ4TU-5 | 2026-08-30 12:00:14 | 46.20540 | 20.55442 | 112° | 47km/h | 15365m | 7.7m/s | -57.8°C | 0% | 0hPa | 2.7V | 00:00:00 | 00:00:00 | 00:00:00 | |
| GYPAP8-17 | 2026-08-30 12:00:12 | 46.20550 | 20.55412 | 117° | 46km/h | 15351m | 10.1m/s | -57.9°C | 2.8% | 122.8hPa | 2.7V | 00:00:00 | 00:00:00 | 00:00:00 | |
| LZ4TU-5 | 2026-08-30 12:00:10 | 46.20559 | 20.55384 | 114° | 42km/h | 15338m | 2.8m/s | -58.0°C | 0% | 0hPa | 2.7V | 00:00:00 | 00:00:00 | 00:00:00 | |
| 9A1FER-10 | 2026-08-30 11:59:11 | 46.20673 | 20.54319 | 83° | 38km/h | 14957m | 8.4m/s | -59.0°C | 8.1% | 130.7hPa | 2.7V | 00:00:00 | 01:09:47 | 00:00:00 | |
| 9A1FER-10 | 2026-08-30 11:58:56 | 46.20647 | 20.54111 | 81° | 31km/h | 14860m | 5.1m/s | -58.8°C | 9.1% | 132.8hPa | 2.7V | 00:00:00 | 01:09:32 | 00:00:00 | |
| GYPAP8-17 | 2026-08-30 11:58:52 | 46.20642 | 20.54077 | 68° | 31km/h | 14840m | 9.9m/s | -58.9°C | 4.7% | 133.3hPa | 2.7V | 00:00:00 | 00:00:00 | 00:00:00 | |
| 9A1FER-10 | 2026-08-30 11:58:41 | 46.20630 | 20.53949 | 113° | 33km/h | 14762m | 6.5m/s | -58.9°C | 10.0% | 134.9hPa | 2.7V | 00:00:00 | 01:09:17 | 00:00:00 | |
| 9A1FER-10 | 2026-08-30 11:58:26 | 46.20679 | 20.53789 | 121° | 44km/h | 14660m | 4.2m/s | -59.1°C | 10.6% | 137.2hPa | 0V | 00:00:00 | 01:09:02 | 00:00:00 | |
| LZ4TU-5 | 2026-08-30 11:58:21 | 46.20695 | 20.53734 | 114° | 46km/h | 14632m | 4.7m/s | -59.1°C | 0% | 0hPa | 0V | 00:00:00 | 00:00:00 | 00:00:00 | |
| 9A1FER-10 | 2026-08-30 11:57:56 | 46.20829 | 20.53302 | 101° | 66km/h | 14466m | 4.1m/s | 0°C | 0% | 0hPa | 0V | 00:00:00 | 01:08:32 | 00:00:00 | |
| 9A1FER-10 | 2026-08-30 11:57:41 | 46.20903 | 20.52965 | 109° | 57km/h | 14374m | 4.9m/s | 0°C | 0% | 0hPa | 0V | 00:00:00 | 01:08:17 | 00:00:00 | |
| 9A1FER-10 | 2026-08-30 11:57:26 | 46.20967 | 20.52674 | 110° | 46km/h | 14271m | 8.4m/s | 0°C | 0% | 0hPa | 0V | 00:00:00 | 01:08:02 | 00:00:00 | |
| 9A1FER-10 | 2026-08-30 11:57:11 | 46.21005 | 20.52435 | 106° | 51km/h | 14171m | 6.1m/s | 0°C | 0% | 0hPa | 0V | 00:00:00 | 01:07:47 | 00:00:00 | |
| LZ4TU-5 | 2026-08-30 11:56:39 | 46.21103 | 20.51905 | 104° | 47km/h | 13980m | 5.6m/s | -57.3°C | 0% | 0hPa | 0V | 00:00:00 | 00:00:00 | 00:00:00 | |
| LZ4TU-5 | 2026-08-30 11:56:34 | 46.21119 | 20.51815 | 105° | 53km/h | 13950m | 9.8m/s | 0°C | 0% | 0hPa | 0V | 00:00:00 | 00:00:00 | 00:00:00 | |
| GYPAP8-17 | 2026-08-30 11:55:45 | 46.21297 | 20.50749 | 105° | 66km/h | 13627m | 6.8m/s | -57.2°C | 8.5% | 161.3hPa | 0V | 00:00:00 | 00:00:00 | 00:00:00 | |
| LZ4TU-5 | 2026-08-30 11:54:50 | 46.21512 | 20.49525 | 104° | 69km/h | 13279m | 9.8m/s | 0°C | 0% | 0hPa | 0V | 00:00:00 | 00:00:00 | 00:00:00 | |
| LZ4TU-5 | 2026-08-30 11:54:45 | 46.21544 | 20.49403 | 114° | 78km/h | 13245m | 5.2m/s | 0°C | 0% | 0hPa | 0V | 00:00:00 | 00:00:00 | 00:00:00 | |
| LZ4TU-5 | 2026-08-30 11:53:01 | 46.21837 | 20.46243 | 102° | 91km/h | 12625m | 6.3m/s | 0°C | 0% | 0hPa | 0V | 00:00:00 | 00:00:00 | 00:00:00 | |
| LZ4TU-5 | 2026-08-30 11:52:58 | 46.21852 | 20.46114 | 99° | 89km/h | 12598m | 9.4m/s | 0°C | 0% | 0hPa | 0V | 00:00:00 | 00:00:00 | 00:00:00 | |
| LZ4TU-5 | 2026-08-30 11:51:16 | 46.22122 | 20.42657 | 97° | 100km/h | 12057m | 6.9m/s | 0°C | 0% | 0hPa | 0V | 00:00:00 | 00:00:00 | 00:00:00 | |
| LZ4TU-5 | 2026-08-30 11:51:11 | 46.22149 | 20.42476 | 108° | 104km/h | 12027m | 6.7m/s | 0°C | 0% | 0hPa | 0V | 00:00:00 | 00:00:00 | 00:00:00 | |
| LZ4TU-5 | 2026-08-30 11:49:02 | 46.22615 | 20.37787 | 97° | 99km/h | 11320m | 3.7m/s | 0°C | 0% | 0hPa | 0V | 00:00:00 | 00:00:00 | 00:00:00 | |
| LZ4TU-5 | 2026-08-30 11:48:58 | 46.22627 | 20.37638 | 97° | 104km/h | 11302m | 5.5m/s | 0°C | 0% | 0hPa | 0V | 00:00:00 | 00:00:00 | 00:00:00 | |
| OM5KV | 2026-08-30 11:48:50 | 46.22645 | 20.37347 | 97° | 97km/h | 11265m | 5.6m/s | -50.4°C | 36.2% | 233.7hPa | 0V | 00:00:00 | 00:00:00 | 00:00:00 | |
| LZ4TU-5 | 2026-08-30 11:48:46 | 46.22654 | 20.37206 | 96° | 100km/h | 11247m | 5.3m/s | 0°C | 0% | 0hPa | 0V | 00:00:00 | 00:00:00 | 00:00:00 | |
| OM5KV | 2026-08-30 11:48:44 | 46.22658 | 20.37132 | 96° | 104km/h | 11237m | 3.9m/s | -50.2°C | 35.1% | 234.6hPa | 0V | 00:00:00 | 00:00:00 | 00:00:00 | |
| OM5KV | 2026-08-30 11:48:39 | 46.22669 | 20.36947 | 98° | 97km/h | 11216m | 4.4m/s | -50.1°C | 36.1% | 235.4hPa | 0V | 00:00:00 | 00:00:00 | 00:00:00 | |
| OM5KV | 2026-08-30 11:48:28 | 46.22692 | 20.36543 | 90° | 95km/h | 11158m | 4.1m/s | -49.8°C | 36.2% | 237.4hPa | 0V | 00:00:00 | 00:00:00 | 00:00:00 | |
| OM5KV | 2026-08-30 11:48:18 | 46.22710 | 20.36195 | 96° | 100km/h | 11111m | 4.7m/s | -49.7°C | 36.3% | 239.2hPa | 0V | 00:00:00 | 00:00:00 | 00:00:00 | |
| OM5KV | 2026-08-30 11:48:12 | 46.22723 | 20.35970 | 99° | 113km/h | 11081m | 3.2m/s | -49.5°C | 32.1% | 240.2hPa | 0V | 00:00:00 | 00:00:00 | 00:00:00 | |
| OM5KV | 2026-08-30 11:48:08 | 46.22740 | 20.35811 | 100° | 106km/h | 11065m | 4.5m/s | -49.4°C | 30.8% | 240.8hPa | 0V | 00:00:00 | 00:00:00 | 00:00:00 | |
| OM5KV | 2026-08-30 11:48:00 | 46.22750 | 20.35527 | 93° | 86km/h | 11018m | 6.5m/s | -49.2°C | 29.6% | 242.7hPa | 0V | 00:00:00 | 00:00:00 | 00:00:00 | |
| OM5KV | 2026-08-30 11:47:55 | 46.22761 | 20.35373 | 100° | 93km/h | 10993m | 4.5m/s | -49.0°C | 29.5% | 243.6hPa | 0V | 00:00:00 | 00:00:00 | 00:00:00 | |
| OM5KV | 2026-08-30 11:47:51 | 46.22770 | 20.35234 | 93° | 95km/h | 10973m | 5.5m/s | -48.8°C | 28.5% | 244.4hPa | 0V | 00:00:00 | 00:00:00 | 00:00:00 | |
| OM5KV | 2026-08-30 11:47:46 | 46.22766 | 20.35073 | 89° | 86km/h | 10946m | 5.6m/s | -48.6°C | 26.8% | 245.3hPa | 0V | 00:00:00 | 00:00:00 | 00:00:00 | |
| OM5KV | 2026-08-30 11:47:45 | 46.22766 | 20.35041 | 93° | 89km/h | 10941m | 3.5m/s | -48.6°C | 26.2% | 245.5hPa | 0V | 00:00:00 | 00:00:00 | 00:00:00 | |
| OM5KV | 2026-08-30 11:47:41 | 46.22772 | 20.34907 | 94° | 97km/h | 10916m | 4.3m/s | -48.4°C | 23.7% | 246.5hPa | 0V | 00:00:00 | 00:00:00 | 00:00:00 | |
| OM5KV | 2026-08-30 11:47:40 | 46.22773 | 20.34872 | 92° | 97km/h | 10911m | 5.4m/s | -48.4°C | 23.0% | 246.7hPa | 0V | 00:00:00 | 00:00:00 | 00:00:00 | |
| OM5KV | 2026-08-30 11:47:35 | 46.22769 | 20.34702 | 87° | 97km/h | 10883m | 6.5m/s | -48.2°C | 22.5% | 247.9hPa | 0V | 00:00:00 | 00:00:00 | 00:00:00 | |
| OM5KV | 2026-08-30 11:47:34 | 46.22767 | 20.34667 | 86° | 100km/h | 10876m | 8.2m/s | -48.2°C | 22.5% | 248.2hPa | 0V | 00:00:00 | 00:00:00 | 00:00:00 | |
| OM5KV | 2026-08-30 11:47:29 | 46.22763 | 20.34481 | 94° | 95km/h | 10848m | 4.8m/s | -48.0°C | 25.8% | 249.2hPa | 0V | 00:00:00 | 00:00:00 | 00:00:00 | |
| OM5KV | 2026-08-30 11:47:24 | 46.22768 | 20.34309 | 94° | 104km/h | 10825m | 5.1m/s | -47.7°C | 31.7% | 250.2hPa | 0V | 00:00:00 | 00:00:00 | 00:00:00 | |
| OM5KV | 2026-08-30 11:47:23 | 46.22769 | 20.34271 | 91° | 106km/h | 10821m | 3.7m/s | -47.7°C | 32.9% | 250.3hPa | 0V | 00:00:00 | 00:00:00 | 00:00:00 | |
| OM5KV | 2026-08-30 11:47:18 | 46.22762 | 20.34084 | 88° | 89km/h | 10788m | 6.2m/s | -47.6°C | 45.9% | 251.5hPa | 0V | 00:00:00 | 00:00:00 | 00:00:00 | |
| OM5KV | 2026-08-30 11:47:17 | 46.22762 | 20.34053 | 92° | 86km/h | 10783m | 4.6m/s | -47.6°C | 48.7% | 251.7hPa | 0V | 00:00:00 | 00:00:00 | 00:00:00 | |
| OM5KV | 2026-08-30 11:47:12 | 46.22779 | 20.33849 | 99° | 102km/h | 10747m | 6.2m/s | -47.6°C | 62.6% | 253.0hPa | 0V | 00:00:00 | 00:00:00 | 00:00:00 | |
| OM5KV | 2026-08-30 11:47:00 | 46.22782 | 20.33471 | 93° | 95km/h | 10681m | 4.6m/s | -47.1°C | 61.7% | 255.4hPa | 0V | 00:00:00 | 00:00:00 | 00:00:00 | |
| OM5KV | 2026-08-30 11:46:54 | 46.22791 | 20.33266 | 96° | 93km/h | 10654m | 3.3m/s | -46.9°C | 64.6% | 256.5hPa | 0V | 00:00:00 | 00:00:00 | 00:00:00 | |
| OM5KV | 2026-08-30 11:46:49 | 46.22795 | 20.33097 | 87° | 95km/h | 10631m | 3.7m/s | -46.7°C | 65.2% | 257.3hPa | 0V | 00:00:00 | 00:00:00 | 00:00:00 | |
| OM5KV | 2026-08-30 11:46:47 | 46.22789 | 20.33027 | 83° | 95km/h | 10620m | 4.4m/s | -46.7°C | 0% | 0hPa | 0V | 00:00:00 | 00:00:00 | 00:00:00 | |
| OM5KV | 2026-08-30 11:46:40 | 46.22782 | 20.32789 | 92° | 95km/h | 10573m | 6.6m/s | -46.3°C | 0% | 0hPa | 0V | 00:00:00 | 00:00:00 | 00:00:00 | |
| OM5KV | 2026-08-30 11:46:29 | 46.22797 | 20.32408 | 95° | 93km/h | 10509m | 6.9m/s | -45.8°C | 0% | 0hPa | 0V | 00:00:00 | 00:00:00 | 00:00:00 | |
| OM5KV | 2026-08-30 11:46:23 | 46.22793 | 20.32204 | 92° | 97km/h | 10476m | 4.2m/s | -45.5°C | 0% | 0hPa | 0V | 00:00:00 | 00:00:00 | 00:00:00 | |
| OM5KV | 2026-08-30 11:46:21 | 46.22797 | 20.32134 | 99° | 93km/h | 10467m | 6.0m/s | -45.4°C | 68.2% | 263.7hPa | 0V | 00:00:00 | 00:00:00 | 00:00:00 | |
| OM5KV | 2026-08-30 11:46:17 | 46.22808 | 20.32006 | 93° | 89km/h | 10445m | 6.2m/s | -45.2°C | 0% | 0hPa | 0V | 00:00:00 | 00:00:00 | 00:00:00 | |
| OM5KV | 2026-08-30 11:46:14 | 46.22809 | 20.31903 | 91° | 99km/h | 10420m | 7.9m/s | -45.0°C | 69.4% | 265.4hPa | 0V | 00:00:00 | 00:00:00 | 00:00:00 | |
| OM5KV | 2026-08-30 11:46:12 | 46.22810 | 20.31830 | 93° | 102km/h | 10405m | 5.6m/s | -44.9°C | 0% | 0hPa | 0V | 00:00:00 | 00:00:00 | 00:00:00 | |
| OM5KV | 2026-08-30 11:46:06 | 46.22813 | 20.31611 | 89° | 99km/h | 10372m | 6.3m/s | -44.5°C | 0% | 0hPa | 0V | 00:00:00 | 00:00:00 | 00:00:00 | |
| OM5KV | 2026-08-30 11:46:00 | 46.22814 | 20.31403 | 94° | 93km/h | 10341m | 5.7m/s | -44.3°C | 0% | 0hPa | 0V | 00:00:00 | 00:00:00 | 00:00:00 | |
| OM5KV | 2026-08-30 11:45:58 | 46.22816 | 20.31334 | 94° | 97km/h | 10331m | 6.0m/s | -44.2°C | 70.0% | 268.9hPa | 0V | 00:00:00 | 00:00:00 | 00:00:00 | |
| OM5KV | 2026-08-30 11:45:54 | 46.22818 | 20.31189 | 89° | 99km/h | 10310m | 3.9m/s | -44.0°C | 0% | 0hPa | 0V | 00:00:00 | 00:00:00 | 00:00:00 | |
| OM5KV | 2026-08-30 11:45:48 | 46.22820 | 20.30969 | 94° | 100km/h | 10279m | 4.5m/s | -43.7°C | 0% | 0hPa | 0V | 00:00:00 | 00:00:00 | 00:00:00 | |
| OM5KV | 2026-08-30 11:45:42 | 46.22825 | 20.30769 | 88° | 84km/h | 10247m | 4.0m/s | -43.5°C | 0% | 0hPa | 0V | 00:00:00 | 00:00:00 | 00:00:00 | |
| OM5KV | 2026-08-30 11:45:37 | 46.22824 | 20.30565 | 93° | 108km/h | 10212m | 4.2m/s | -43.2°C | 68.4% | 273.5hPa | 0V | 00:00:00 | 00:00:00 | 00:00:00 | |
| OM5KV | 2026-08-30 11:45:31 | 46.22830 | 20.30381 | 92° | 91km/h | 10177m | 5.5m/s | 0°C | 0% | 0hPa | 0V | 00:00:00 | 00:00:00 | 00:00:00 | |
| OM5KV | 2026-08-30 11:45:26 | 46.22829 | 20.30206 | 92° | 99km/h | 10148m | 6.7m/s | 0°C | 0% | 0hPa | 0V | 00:00:00 | 00:00:00 | 00:00:00 | |
| OM5KV | 2026-08-30 11:45:25 | 46.22829 | 20.30171 | 92° | 97km/h | 10143m | 4.8m/s | -42.5°C | 71.7% | 276.7hPa | 0V | 00:00:00 | 00:00:00 | 00:00:00 | |
| OM5KV | 2026-08-30 11:45:20 | 46.22835 | 20.30009 | 95° | 91km/h | 10114m | 6.2m/s | 0°C | 0% | 0hPa | 0V | 00:00:00 | 00:00:00 | 00:00:00 | |
| OM5KV | 2026-08-30 11:45:15 | 46.22842 | 20.29824 | 89° | 104km/h | 10080m | 7.8m/s | 0°C | 0% | 0hPa | 0V | 00:00:00 | 00:00:00 | 00:00:00 | |
| OM5KV | 2026-08-30 11:45:14 | 46.22840 | 20.29786 | 87° | 102km/h | 10074m | 5.3m/s | -41.9°C | 0% | 0hPa | 0V | 00:00:00 | 00:00:00 | 00:00:00 | |
| OM5KV | 2026-08-30 11:45:08 | 46.22834 | 20.29581 | 90° | 89km/h | 10035m | 6.4m/s | -41.5°C | 0% | 0hPa | 0V | 00:00:00 | 00:00:00 | 00:00:00 | |
| OM5KV | 2026-08-30 11:44:55 | 46.22827 | 20.29134 | 87° | 110km/h | 9958m | 6.6m/s | -40.9°C | 0% | 0hPa | 0V | 00:00:00 | 00:00:00 | 00:00:00 | |
| OM5KV | 2026-08-30 11:44:50 | 46.22815 | 20.28951 | 87° | 97km/h | 9926m | 5.6m/s | -40.6°C | 0% | 0hPa | 0V | 00:00:00 | 00:00:00 | 00:00:00 | |
| OM5KV | 2026-08-30 11:44:44 | 46.22819 | 20.28727 | 92° | 104km/h | 9889m | 4.5m/s | 0°C | 0% | 0hPa | 0V | 00:00:00 | 00:00:00 | 00:00:00 | |
| OM5KV | 2026-08-30 11:44:38 | 46.22837 | 20.28503 | 100° | 106km/h | 9855m | 4.1m/s | 0°C | 0% | 0hPa | 0V | 00:00:00 | 00:00:00 | 00:00:00 | |
| OM5KV | 2026-08-30 11:44:33 | 46.22847 | 20.28303 | 88° | 104km/h | 9826m | 8.7m/s | 0°C | 0% | 0hPa | 0V | 00:00:00 | 00:00:00 | 00:00:00 | |
| OM5KV | 2026-08-30 11:44:27 | 46.22837 | 20.28111 | 92° | 86km/h | 9791m | 4.4m/s | 0°C | 0% | 0hPa | 0V | 00:00:00 | 00:00:00 | 00:00:00 |